sensor_id;sensor_type;location;lat;lon;timestamp;P1;durP1;ratioP1;P2;durP2;ratioP2
11827;SDS011;5971;49.646;8.568;2023-04-16T00:02:39;5.32;;;3.25;;
11827;SDS011;5971;49.646;8.568;2023-04-16T00:05:41;4.95;;;2.40;;
11827;SDS011;5971;49.646;8.568;2023-04-16T00:08:42;5.13;;;3.33;;
11827;SDS011;5971;49.646;8.568;2023-04-16T00:11:43;5.90;;;3.53;;
11827;SDS011;5971;49.646;8.568;2023-04-16T00:14:45;6.20;;;3.88;;
11827;SDS011;5971;49.646;8.568;2023-04-16T00:17:46;6.45;;;3.00;;
11827;SDS011;5971;49.646;8.568;2023-04-16T00:20:48;7.18;;;3.47;;
11827;SDS011;5971;49.646;8.568;2023-04-16T00:23:49;7.05;;;4.10;;
11827;SDS011;5971;49.646;8.568;2023-04-16T00:26:50;5.57;;;3.40;;
11827;SDS011;5971;49.646;8.568;2023-04-16T00:29:52;5.68;;;3.47;;
11827;SDS011;5971;49.646;8.568;2023-04-16T00:32:53;5.90;;;2.85;;
11827;SDS011;5971;49.646;8.568;2023-04-16T00:35:54;5.60;;;2.85;;
11827;SDS011;5971;49.646;8.568;2023-04-16T00:38:56;8.32;;;4.78;;
11827;SDS011;5971;49.646;8.568;2023-04-16T00:41:57;7.55;;;4.63;;
11827;SDS011;5971;49.646;8.568;2023-04-16T00:44:58;7.05;;;3.85;;
11827;SDS011;5971;49.646;8.568;2023-04-16T00:48:00;5.18;;;3.08;;
11827;SDS011;5971;49.646;8.568;2023-04-16T00:51:03;6.70;;;3.90;;
11827;SDS011;5971;49.646;8.568;2023-04-16T00:54:04;5.38;;;3.25;;
11827;SDS011;5971;49.646;8.568;2023-04-16T00:57:06;5.82;;;3.58;;
11827;SDS011;5971;49.646;8.568;2023-04-16T01:00:07;6.38;;;4.20;;
11827;SDS011;5971;49.646;8.568;2023-04-16T01:03:10;7.93;;;3.58;;
11827;SDS011;5971;49.646;8.568;2023-04-16T01:06:11;5.88;;;3.47;;
11827;SDS011;5971;49.646;8.568;2023-04-16T01:09:13;7.00;;;4.30;;
11827;SDS011;5971;49.646;8.568;2023-04-16T01:12:14;5.50;;;3.13;;
11827;SDS011;5971;49.646;8.568;2023-04-16T01:15:15;7.00;;;4.18;;
11827;SDS011;5971;49.646;8.568;2023-04-16T01:18:18;6.45;;;3.28;;
11827;SDS011;5971;49.646;8.568;2023-04-16T01:21:19;5.90;;;2.42;;
11827;SDS011;5971;49.646;8.568;2023-04-16T01:24:20;8.40;;;3.53;;
11827;SDS011;5971;49.646;8.568;2023-04-16T01:27:22;7.18;;;3.03;;
11827;SDS011;5971;49.646;8.568;2023-04-16T01:30:23;7.35;;;3.92;;
11827;SDS011;5971;49.646;8.568;2023-04-16T01:33:25;5.88;;;3.33;;
11827;SDS011;5971;49.646;8.568;2023-04-16T01:36:26;6.82;;;3.88;;
11827;SDS011;5971;49.646;8.568;2023-04-16T01:39:27;7.22;;;3.17;;
11827;SDS011;5971;49.646;8.568;2023-04-16T01:42:29;7.75;;;2.83;;
11827;SDS011;5971;49.646;8.568;2023-04-16T01:45:30;5.30;;;3.33;;
11827;SDS011;5971;49.646;8.568;2023-04-16T01:48:32;7.35;;;3.45;;
11827;SDS011;5971;49.646;8.568;2023-04-16T01:51:33;7.90;;;4.05;;
11827;SDS011;5971;49.646;8.568;2023-04-16T01:54:34;5.35;;;3.60;;
11827;SDS011;5971;49.646;8.568;2023-04-16T01:57:36;7.60;;;5.00;;
11827;SDS011;5971;49.646;8.568;2023-04-16T02:00:37;5.93;;;2.72;;
11827;SDS011;5971;49.646;8.568;2023-04-16T02:03:38;6.90;;;3.72;;
11827;SDS011;5971;49.646;8.568;2023-04-16T02:06:40;7.97;;;4.10;;
11827;SDS011;5971;49.646;8.568;2023-04-16T02:09:42;6.20;;;3.40;;
11827;SDS011;5971;49.646;8.568;2023-04-16T02:12:43;6.45;;;4.07;;
11827;SDS011;5971;49.646;8.568;2023-04-16T02:15:48;6.65;;;3.42;;
11827;SDS011;5971;49.646;8.568;2023-04-16T02:18:50;8.13;;;4.28;;
11827;SDS011;5971;49.646;8.568;2023-04-16T02:21:52;8.63;;;4.50;;
11827;SDS011;5971;49.646;8.568;2023-04-16T02:24:53;4.75;;;3.53;;
11827;SDS011;5971;49.646;8.568;2023-04-16T02:27:55;6.53;;;3.47;;
11827;SDS011;5971;49.646;8.568;2023-04-16T02:30:56;8.85;;;4.35;;
11827;SDS011;5971;49.646;8.568;2023-04-16T02:33:57;8.20;;;4.10;;
11827;SDS011;5971;49.646;8.568;2023-04-16T02:36:59;7.15;;;3.85;;
11827;SDS011;5971;49.646;8.568;2023-04-16T02:40:00;8.48;;;3.60;;
11827;SDS011;5971;49.646;8.568;2023-04-16T02:43:01;8.70;;;5.20;;
11827;SDS011;5971;49.646;8.568;2023-04-16T02:46:03;8.10;;;4.55;;
11827;SDS011;5971;49.646;8.568;2023-04-16T02:49:04;6.93;;;3.33;;
11827;SDS011;5971;49.646;8.568;2023-04-16T02:52:05;9.48;;;3.67;;
11827;SDS011;5971;49.646;8.568;2023-04-16T02:55:07;8.30;;;3.97;;
11827;SDS011;5971;49.646;8.568;2023-04-16T02:58:08;7.28;;;3.40;;
11827;SDS011;5971;49.646;8.568;2023-04-16T03:01:10;7.32;;;4.05;;
11827;SDS011;5971;49.646;8.568;2023-04-16T03:04:11;9.85;;;4.47;;
11827;SDS011;5971;49.646;8.568;2023-04-16T03:07:12;8.15;;;3.33;;
11827;SDS011;5971;49.646;8.568;2023-04-16T03:10:14;6.57;;;4.03;;
11827;SDS011;5971;49.646;8.568;2023-04-16T03:13:15;6.70;;;3.72;;
11827;SDS011;5971;49.646;8.568;2023-04-16T03:16:16;9.32;;;4.65;;
11827;SDS011;5971;49.646;8.568;2023-04-16T03:19:18;7.40;;;4.18;;
11827;SDS011;5971;49.646;8.568;2023-04-16T03:22:19;7.93;;;3.55;;
11827;SDS011;5971;49.646;8.568;2023-04-16T03:25:21;7.95;;;4.50;;
11827;SDS011;5971;49.646;8.568;2023-04-16T03:28:22;9.52;;;5.32;;
11827;SDS011;5971;49.646;8.568;2023-04-16T03:31:23;7.13;;;4.43;;
11827;SDS011;5971;49.646;8.568;2023-04-16T03:34:25;6.47;;;3.30;;
11827;SDS011;5971;49.646;8.568;2023-04-16T03:37:27;7.95;;;5.45;;
11827;SDS011;5971;49.646;8.568;2023-04-16T03:40:28;7.80;;;4.07;;
11827;SDS011;5971;49.646;8.568;2023-04-16T03:43:29;7.80;;;3.50;;
11827;SDS011;5971;49.646;8.568;2023-04-16T03:46:30;11.77;;;5.43;;
11827;SDS011;5971;49.646;8.568;2023-04-16T03:49:32;9.88;;;4.97;;
11827;SDS011;5971;49.646;8.568;2023-04-16T03:52:33;8.43;;;3.85;;
11827;SDS011;5971;49.646;8.568;2023-04-16T03:55:34;7.70;;;3.72;;
11827;SDS011;5971;49.646;8.568;2023-04-16T03:58:36;7.63;;;4.53;;
11827;SDS011;5971;49.646;8.568;2023-04-16T04:01:37;10.10;;;5.07;;
11827;SDS011;5971;49.646;8.568;2023-04-16T04:04:38;9.13;;;4.70;;
11827;SDS011;5971;49.646;8.568;2023-04-16T04:07:41;7.10;;;4.30;;
11827;SDS011;5971;49.646;8.568;2023-04-16T04:10:42;7.28;;;3.50;;
11827;SDS011;5971;49.646;8.568;2023-04-16T04:13:43;8.75;;;4.28;;
11827;SDS011;5971;49.646;8.568;2023-04-16T04:16:45;9.40;;;4.15;;
11827;SDS011;5971;49.646;8.568;2023-04-16T04:19:46;6.80;;;4.15;;
11827;SDS011;5971;49.646;8.568;2023-04-16T04:23:01;7.93;;;4.45;;
11827;SDS011;5971;49.646;8.568;2023-04-16T04:26:02;8.80;;;4.68;;
11827;SDS011;5971;49.646;8.568;2023-04-16T04:29:05;10.68;;;4.90;;
11827;SDS011;5971;49.646;8.568;2023-04-16T04:32:06;7.55;;;3.80;;
11827;SDS011;5971;49.646;8.568;2023-04-16T04:35:08;9.05;;;4.57;;
11827;SDS011;5971;49.646;8.568;2023-04-16T04:38:09;9.65;;;3.75;;
11827;SDS011;5971;49.646;8.568;2023-04-16T04:41:11;8.98;;;5.05;;
11827;SDS011;5971;49.646;8.568;2023-04-16T04:44:12;8.85;;;4.28;;
11827;SDS011;5971;49.646;8.568;2023-04-16T04:47:13;8.82;;;4.05;;
11827;SDS011;5971;49.646;8.568;2023-04-16T04:50:15;11.05;;;4.20;;
11827;SDS011;5971;49.646;8.568;2023-04-16T04:53:16;8.40;;;4.35;;
11827;SDS011;5971;49.646;8.568;2023-04-16T04:56:17;8.10;;;3.72;;
11827;SDS011;5971;49.646;8.568;2023-04-16T04:59:19;8.38;;;4.50;;
11827;SDS011;5971;49.646;8.568;2023-04-16T05:02:20;8.00;;;3.65;;
11827;SDS011;5971;49.646;8.568;2023-04-16T05:05:22;9.25;;;5.28;;
11827;SDS011;5971;49.646;8.568;2023-04-16T05:08:23;8.45;;;4.55;;
11827;SDS011;5971;49.646;8.568;2023-04-16T05:11:25;7.93;;;4.45;;
11827;SDS011;5971;49.646;8.568;2023-04-16T05:14:26;10.40;;;4.25;;
11827;SDS011;5971;49.646;8.568;2023-04-16T05:17:27;8.73;;;4.10;;
11827;SDS011;5971;49.646;8.568;2023-04-16T05:20:29;8.98;;;4.38;;
11827;SDS011;5971;49.646;8.568;2023-04-16T05:23:30;8.20;;;4.38;;
11827;SDS011;5971;49.646;8.568;2023-04-16T05:26:31;8.63;;;4.13;;
11827;SDS011;5971;49.646;8.568;2023-04-16T05:29:32;6.95;;;3.72;;
11827;SDS011;5971;49.646;8.568;2023-04-16T05:32:34;9.27;;;4.45;;
11827;SDS011;5971;49.646;8.568;2023-04-16T05:35:36;7.35;;;4.07;;
11827;SDS011;5971;49.646;8.568;2023-04-16T05:38:37;3.38;;;2.33;;
11827;SDS011;5971;49.646;8.568;2023-04-16T05:41:38;7.50;;;3.92;;
11827;SDS011;5971;49.646;8.568;2023-04-16T05:44:40;6.78;;;3.70;;
11827;SDS011;5971;49.646;8.568;2023-04-16T05:47:41;5.22;;;3.00;;
11827;SDS011;5971;49.646;8.568;2023-04-16T05:50:42;7.18;;;3.70;;
11827;SDS011;5971;49.646;8.568;2023-04-16T05:53:44;7.63;;;4.32;;
11827;SDS011;5971;49.646;8.568;2023-04-16T05:56:45;8.70;;;4.78;;
11827;SDS011;5971;49.646;8.568;2023-04-16T05:59:47;8.95;;;4.50;;
11827;SDS011;5971;49.646;8.568;2023-04-16T06:02:48;7.43;;;3.35;;
11827;SDS011;5971;49.646;8.568;2023-04-16T06:05:50;10.73;;;5.00;;
11827;SDS011;5971;49.646;8.568;2023-04-16T06:08:52;7.47;;;3.53;;
11827;SDS011;5971;49.646;8.568;2023-04-16T06:11:53;7.22;;;4.15;;
11827;SDS011;5971;49.646;8.568;2023-04-16T06:14:54;6.97;;;3.40;;
11827;SDS011;5971;49.646;8.568;2023-04-16T06:17:56;7.88;;;3.50;;
11827;SDS011;5971;49.646;8.568;2023-04-16T06:24:02;7.32;;;4.50;;
11827;SDS011;5971;49.646;8.568;2023-04-16T06:27:03;9.30;;;3.13;;
11827;SDS011;5971;49.646;8.568;2023-04-16T06:30:05;8.35;;;3.58;;
11827;SDS011;5971;49.646;8.568;2023-04-16T06:33:06;7.13;;;3.92;;
11827;SDS011;5971;49.646;8.568;2023-04-16T06:36:07;6.65;;;3.28;;
11827;SDS011;5971;49.646;8.568;2023-04-16T06:39:09;7.65;;;3.92;;
11827;SDS011;5971;49.646;8.568;2023-04-16T06:42:10;6.95;;;3.80;;
11827;SDS011;5971;49.646;8.568;2023-04-16T06:45:12;8.60;;;3.58;;
11827;SDS011;5971;49.646;8.568;2023-04-16T06:48:13;6.82;;;3.20;;
11827;SDS011;5971;49.646;8.568;2023-04-16T06:51:15;7.85;;;3.78;;
11827;SDS011;5971;49.646;8.568;2023-04-16T06:54:16;7.72;;;4.18;;
11827;SDS011;5971;49.646;8.568;2023-04-16T06:57:19;11.48;;;4.80;;
11827;SDS011;5971;49.646;8.568;2023-04-16T07:00:20;9.27;;;4.57;;
11827;SDS011;5971;49.646;8.568;2023-04-16T07:03:22;8.55;;;4.32;;
11827;SDS011;5971;49.646;8.568;2023-04-16T07:06:23;11.52;;;4.78;;
11827;SDS011;5971;49.646;8.568;2023-04-16T07:09:25;9.38;;;4.50;;
11827;SDS011;5971;49.646;8.568;2023-04-16T07:12:27;9.23;;;4.55;;
11827;SDS011;5971;49.646;8.568;2023-04-16T07:15:28;10.63;;;5.13;;
11827;SDS011;5971;49.646;8.568;2023-04-16T07:18:30;10.40;;;5.80;;
11827;SDS011;5971;49.646;8.568;2023-04-16T07:21:31;10.18;;;5.18;;
11827;SDS011;5971;49.646;8.568;2023-04-16T07:24:32;10.60;;;4.97;;
11827;SDS011;5971;49.646;8.568;2023-04-16T07:27:34;11.55;;;5.60;;
11827;SDS011;5971;49.646;8.568;2023-04-16T07:30:35;10.38;;;4.90;;
11827;SDS011;5971;49.646;8.568;2023-04-16T07:33:36;16.23;;;6.47;;
11827;SDS011;5971;49.646;8.568;2023-04-16T07:36:38;9.90;;;4.72;;
11827;SDS011;5971;49.646;8.568;2023-04-16T07:39:39;12.60;;;6.28;;
11827;SDS011;5971;49.646;8.568;2023-04-16T07:42:40;10.73;;;6.65;;
11827;SDS011;5971;49.646;8.568;2023-04-16T07:45:42;16.05;;;5.72;;
11827;SDS011;5971;49.646;8.568;2023-04-16T07:48:44;9.40;;;5.38;;
11827;SDS011;5971;49.646;8.568;2023-04-16T07:51:45;12.05;;;4.60;;
11827;SDS011;5971;49.646;8.568;2023-04-16T07:54:47;9.45;;;4.28;;
11827;SDS011;5971;49.646;8.568;2023-04-16T07:57:48;12.23;;;4.70;;
11827;SDS011;5971;49.646;8.568;2023-04-16T08:00:49;9.38;;;4.53;;
11827;SDS011;5971;49.646;8.568;2023-04-16T08:03:51;10.15;;;4.47;;
11827;SDS011;5971;49.646;8.568;2023-04-16T08:06:53;8.23;;;4.07;;
11827;SDS011;5971;49.646;8.568;2023-04-16T08:09:54;13.52;;;5.72;;
11827;SDS011;5971;49.646;8.568;2023-04-16T08:12:55;12.15;;;5.13;;
11827;SDS011;5971;49.646;8.568;2023-04-16T08:15:57;12.73;;;5.63;;
11827;SDS011;5971;49.646;8.568;2023-04-16T08:18:58;11.70;;;5.13;;
11827;SDS011;5971;49.646;8.568;2023-04-16T08:22:01;8.50;;;3.92;;
11827;SDS011;5971;49.646;8.568;2023-04-16T08:25:02;11.88;;;5.00;;
11827;SDS011;5971;49.646;8.568;2023-04-16T08:28:04;10.82;;;5.53;;
11827;SDS011;5971;49.646;8.568;2023-04-16T08:31:05;10.88;;;5.10;;
11827;SDS011;5971;49.646;8.568;2023-04-16T08:34:07;8.85;;;3.92;;
11827;SDS011;5971;49.646;8.568;2023-04-16T08:37:08;9.55;;;4.97;;
11827;SDS011;5971;49.646;8.568;2023-04-16T08:40:10;10.70;;;4.70;;
11827;SDS011;5971;49.646;8.568;2023-04-16T08:43:11;10.50;;;4.32;;
11827;SDS011;5971;49.646;8.568;2023-04-16T08:46:14;10.20;;;4.55;;
11827;SDS011;5971;49.646;8.568;2023-04-16T08:49:17;9.73;;;4.68;;
11827;SDS011;5971;49.646;8.568;2023-04-16T08:52:18;10.95;;;5.30;;
11827;SDS011;5971;49.646;8.568;2023-04-16T08:55:21;11.48;;;5.00;;
11827;SDS011;5971;49.646;8.568;2023-04-16T08:58:26;8.82;;;4.60;;
11827;SDS011;5971;49.646;8.568;2023-04-16T09:01:29;10.07;;;4.60;;
11827;SDS011;5971;49.646;8.568;2023-04-16T09:04:30;8.63;;;3.55;;
11827;SDS011;5971;49.646;8.568;2023-04-16T09:07:33;10.30;;;4.22;;
11827;SDS011;5971;49.646;8.568;2023-04-16T09:10:34;8.35;;;3.88;;
11827;SDS011;5971;49.646;8.568;2023-04-16T09:13:36;8.88;;;5.20;;
11827;SDS011;5971;49.646;8.568;2023-04-16T09:16:37;8.25;;;4.63;;
11827;SDS011;5971;49.646;8.568;2023-04-16T09:19:39;9.68;;;4.35;;
11827;SDS011;5971;49.646;8.568;2023-04-16T09:22:41;9.73;;;3.90;;
11827;SDS011;5971;49.646;8.568;2023-04-16T09:25:43;9.30;;;4.65;;
11827;SDS011;5971;49.646;8.568;2023-04-16T09:28:45;9.23;;;4.22;;
11827;SDS011;5971;49.646;8.568;2023-04-16T09:32:05;8.85;;;3.83;;
11827;SDS011;5971;49.646;8.568;2023-04-16T09:35:07;10.40;;;5.03;;
11827;SDS011;5971;49.646;8.568;2023-04-16T09:38:08;8.52;;;4.15;;
11827;SDS011;5971;49.646;8.568;2023-04-16T09:41:10;9.60;;;4.57;;
11827;SDS011;5971;49.646;8.568;2023-04-16T09:44:11;9.18;;;3.80;;
11827;SDS011;5971;49.646;8.568;2023-04-16T09:47:12;10.50;;;4.28;;
11827;SDS011;5971;49.646;8.568;2023-04-16T09:50:15;9.27;;;3.92;;
11827;SDS011;5971;49.646;8.568;2023-04-16T09:56:22;8.38;;;4.10;;
11827;SDS011;5971;49.646;8.568;2023-04-16T09:59:23;9.60;;;5.28;;
11827;SDS011;5971;49.646;8.568;2023-04-16T10:02:28;10.80;;;4.55;;
11827;SDS011;5971;49.646;8.568;2023-04-16T10:05:30;8.30;;;4.97;;
11827;SDS011;5971;49.646;8.568;2023-04-16T10:08:31;7.40;;;4.40;;
11827;SDS011;5971;49.646;8.568;2023-04-16T10:11:32;8.07;;;3.65;;
11827;SDS011;5971;49.646;8.568;2023-04-16T10:14:34;7.43;;;3.72;;
11827;SDS011;5971;49.646;8.568;2023-04-16T10:17:35;8.68;;;4.13;;
11827;SDS011;5971;49.646;8.568;2023-04-16T10:20:37;9.40;;;4.95;;
11827;SDS011;5971;49.646;8.568;2023-04-16T10:23:39;8.98;;;4.80;;
11827;SDS011;5971;49.646;8.568;2023-04-16T10:26:40;8.70;;;5.18;;
11827;SDS011;5971;49.646;8.568;2023-04-16T10:29:42;8.75;;;4.63;;
11827;SDS011;5971;49.646;8.568;2023-04-16T10:32:44;11.73;;;4.40;;
11827;SDS011;5971;49.646;8.568;2023-04-16T10:35:46;9.35;;;5.07;;
11827;SDS011;5971;49.646;8.568;2023-04-16T10:39:08;11.80;;;5.50;;
11827;SDS011;5971;49.646;8.568;2023-04-16T10:42:11;8.63;;;4.80;;
11827;SDS011;5971;49.646;8.568;2023-04-16T10:45:13;8.32;;;4.82;;
11827;SDS011;5971;49.646;8.568;2023-04-16T10:48:17;9.98;;;4.68;;
11827;SDS011;5971;49.646;8.568;2023-04-16T10:51:26;11.85;;;6.05;;
11827;SDS011;5971;49.646;8.568;2023-04-16T10:54:29;9.57;;;4.32;;
11827;SDS011;5971;49.646;8.568;2023-04-16T10:57:30;9.70;;;5.18;;
11827;SDS011;5971;49.646;8.568;2023-04-16T11:00:31;13.48;;;5.05;;
11827;SDS011;5971;49.646;8.568;2023-04-16T11:03:48;11.90;;;5.18;;
11827;SDS011;5971;49.646;8.568;2023-04-16T11:13:02;11.68;;;5.43;;
11827;SDS011;5971;49.646;8.568;2023-04-16T11:16:06;10.98;;;5.35;;
11827;SDS011;5971;49.646;8.568;2023-04-16T11:19:14;11.48;;;5.05;;
11827;SDS011;5971;49.646;8.568;2023-04-16T11:22:16;10.70;;;5.18;;
11827;SDS011;5971;49.646;8.568;2023-04-16T11:25:20;9.30;;;5.00;;
11827;SDS011;5971;49.646;8.568;2023-04-16T11:28:32;11.50;;;4.55;;
11827;SDS011;5971;49.646;8.568;2023-04-16T11:34:42;10.63;;;5.18;;
11827;SDS011;5971;49.646;8.568;2023-04-16T11:37:44;12.05;;;5.40;;
11827;SDS011;5971;49.646;8.568;2023-04-16T11:40:48;10.15;;;5.95;;
11827;SDS011;5971;49.646;8.568;2023-04-16T11:43:49;9.95;;;5.78;;
11827;SDS011;5971;49.646;8.568;2023-04-16T11:46:51;10.68;;;5.10;;
11827;SDS011;5971;49.646;8.568;2023-04-16T11:49:53;10.73;;;5.07;;
11827;SDS011;5971;49.646;8.568;2023-04-16T11:52:55;10.85;;;5.10;;
11827;SDS011;5971;49.646;8.568;2023-04-16T11:55:57;9.73;;;5.18;;
11827;SDS011;5971;49.646;8.568;2023-04-16T11:59:05;10.40;;;5.57;;
11827;SDS011;5971;49.646;8.568;2023-04-16T12:02:07;12.75;;;6.57;;
11827;SDS011;5971;49.646;8.568;2023-04-16T12:08:46;10.40;;;6.03;;
11827;SDS011;5971;49.646;8.568;2023-04-16T12:11:50;10.35;;;6.40;;
11827;SDS011;5971;49.646;8.568;2023-04-16T12:14:51;11.77;;;6.10;;
11827;SDS011;5971;49.646;8.568;2023-04-16T12:18:04;11.68;;;5.88;;
11827;SDS011;5971;49.646;8.568;2023-04-16T12:21:06;10.98;;;5.40;;
11827;SDS011;5971;49.646;8.568;2023-04-16T12:24:09;14.43;;;6.22;;
11827;SDS011;5971;49.646;8.568;2023-04-16T12:27:10;13.80;;;5.20;;
11827;SDS011;5971;49.646;8.568;2023-04-16T12:30:15;11.50;;;6.00;;
11827;SDS011;5971;49.646;8.568;2023-04-16T12:33:17;12.68;;;5.95;;
11827;SDS011;5971;49.646;8.568;2023-04-16T12:36:19;12.35;;;6.40;;
11827;SDS011;5971;49.646;8.568;2023-04-16T12:39:20;13.43;;;6.75;;
11827;SDS011;5971;49.646;8.568;2023-04-16T12:42:22;10.93;;;5.90;;
11827;SDS011;5971;49.646;8.568;2023-04-16T12:45:24;15.60;;;6.90;;
11827;SDS011;5971;49.646;8.568;2023-04-16T12:48:25;14.82;;;6.75;;
11827;SDS011;5971;49.646;8.568;2023-04-16T12:51:27;12.75;;;6.38;;
11827;SDS011;5971;49.646;8.568;2023-04-16T12:54:28;11.93;;;5.82;;
11827;SDS011;5971;49.646;8.568;2023-04-16T12:57:31;10.00;;;5.15;;
11827;SDS011;5971;49.646;8.568;2023-04-16T13:00:32;13.35;;;6.90;;
11827;SDS011;5971;49.646;8.568;2023-04-16T13:03:33;13.73;;;6.55;;
11827;SDS011;5971;49.646;8.568;2023-04-16T13:06:37;14.23;;;7.28;;
11827;SDS011;5971;49.646;8.568;2023-04-16T13:09:38;14.55;;;6.60;;
11827;SDS011;5971;49.646;8.568;2023-04-16T13:12:40;16.50;;;7.93;;
11827;SDS011;5971;49.646;8.568;2023-04-16T13:15:42;12.57;;;6.32;;
11827;SDS011;5971;49.646;8.568;2023-04-16T13:18:43;16.48;;;8.05;;
11827;SDS011;5971;49.646;8.568;2023-04-16T13:21:44;17.70;;;8.70;;
11827;SDS011;5971;49.646;8.568;2023-04-16T13:24:46;19.15;;;9.68;;
11827;SDS011;5971;49.646;8.568;2023-04-16T13:27:47;13.70;;;6.30;;
11827;SDS011;5971;49.646;8.568;2023-04-16T13:30:48;11.82;;;5.88;;
11827;SDS011;5971;49.646;8.568;2023-04-16T13:33:50;16.63;;;6.85;;
11827;SDS011;5971;49.646;8.568;2023-04-16T13:36:52;13.60;;;6.32;;
11827;SDS011;5971;49.646;8.568;2023-04-16T13:39:53;13.73;;;6.97;;
11827;SDS011;5971;49.646;8.568;2023-04-16T13:42:54;14.40;;;7.60;;
11827;SDS011;5971;49.646;8.568;2023-04-16T13:45:56;14.07;;;6.72;;
11827;SDS011;5971;49.646;8.568;2023-04-16T13:48:57;16.45;;;7.50;;
11827;SDS011;5971;49.646;8.568;2023-04-16T13:51:59;18.23;;;7.47;;
11827;SDS011;5971;49.646;8.568;2023-04-16T13:55:01;13.00;;;6.15;;
11827;SDS011;5971;49.646;8.568;2023-04-16T13:58:02;17.70;;;9.07;;
11827;SDS011;5971;49.646;8.568;2023-04-16T14:01:03;11.27;;;6.38;;
11827;SDS011;5971;49.646;8.568;2023-04-16T14:04:05;15.10;;;7.43;;
11827;SDS011;5971;49.646;8.568;2023-04-16T14:07:07;17.00;;;8.43;;
11827;SDS011;5971;49.646;8.568;2023-04-16T14:10:09;13.65;;;7.03;;
11827;SDS011;5971;49.646;8.568;2023-04-16T14:13:10;17.70;;;7.15;;
11827;SDS011;5971;49.646;8.568;2023-04-16T14:16:12;15.70;;;6.90;;
11827;SDS011;5971;49.646;8.568;2023-04-16T14:19:13;16.90;;;7.93;;
11827;SDS011;5971;49.646;8.568;2023-04-16T14:22:15;17.90;;;9.27;;
11827;SDS011;5971;49.646;8.568;2023-04-16T14:25:17;14.88;;;6.65;;
11827;SDS011;5971;49.646;8.568;2023-04-16T14:28:19;17.33;;;7.55;;
11827;SDS011;5971;49.646;8.568;2023-04-16T14:31:20;17.00;;;8.15;;
11827;SDS011;5971;49.646;8.568;2023-04-16T14:34:22;14.30;;;6.93;;
11827;SDS011;5971;49.646;8.568;2023-04-16T14:37:23;15.52;;;7.47;;
11827;SDS011;5971;49.646;8.568;2023-04-16T14:40:24;17.65;;;7.63;;
11827;SDS011;5971;49.646;8.568;2023-04-16T14:43:26;14.35;;;7.78;;
11827;SDS011;5971;49.646;8.568;2023-04-16T14:46:27;15.45;;;8.02;;
11827;SDS011;5971;49.646;8.568;2023-04-16T14:49:29;16.60;;;7.82;;
11827;SDS011;5971;49.646;8.568;2023-04-16T14:52:30;14.00;;;7.50;;
11827;SDS011;5971;49.646;8.568;2023-04-16T14:55:32;13.70;;;7.07;;
11827;SDS011;5971;49.646;8.568;2023-04-16T14:58:33;11.60;;;6.35;;
11827;SDS011;5971;49.646;8.568;2023-04-16T15:01:39;11.90;;;7.18;;
11827;SDS011;5971;49.646;8.568;2023-04-16T15:04:41;18.17;;;8.27;;
11827;SDS011;5971;49.646;8.568;2023-04-16T15:07:42;12.18;;;6.47;;
11827;SDS011;5971;49.646;8.568;2023-04-16T15:10:44;13.27;;;7.25;;
11827;SDS011;5971;49.646;8.568;2023-04-16T15:13:45;12.70;;;7.10;;
11827;SDS011;5971;49.646;8.568;2023-04-16T15:16:47;16.33;;;8.77;;
11827;SDS011;5971;49.646;8.568;2023-04-16T15:19:48;17.10;;;7.70;;
11827;SDS011;5971;49.646;8.568;2023-04-16T15:22:52;13.95;;;7.50;;
11827;SDS011;5971;49.646;8.568;2023-04-16T15:25:53;14.82;;;7.63;;
11827;SDS011;5971;49.646;8.568;2023-04-16T15:28:54;13.40;;;7.13;;
11827;SDS011;5971;49.646;8.568;2023-04-16T15:31:56;14.38;;;8.30;;
11827;SDS011;5971;49.646;8.568;2023-04-16T15:34:57;14.30;;;8.25;;
11827;SDS011;5971;49.646;8.568;2023-04-16T15:37:59;17.30;;;8.63;;
11827;SDS011;5971;49.646;8.568;2023-04-16T15:41:01;18.27;;;8.98;;
11827;SDS011;5971;49.646;8.568;2023-04-16T15:44:02;14.88;;;7.55;;
11827;SDS011;5971;49.646;8.568;2023-04-16T15:47:04;14.75;;;8.05;;
11827;SDS011;5971;49.646;8.568;2023-04-16T15:50:06;14.93;;;7.90;;
11827;SDS011;5971;49.646;8.568;2023-04-16T15:53:08;14.85;;;7.88;;
11827;SDS011;5971;49.646;8.568;2023-04-16T15:56:09;14.25;;;7.38;;
11827;SDS011;5971;49.646;8.568;2023-04-16T15:59:11;16.85;;;8.65;;
11827;SDS011;5971;49.646;8.568;2023-04-16T16:02:13;18.08;;;8.15;;
11827;SDS011;5971;49.646;8.568;2023-04-16T16:05:15;14.82;;;7.53;;
11827;SDS011;5971;49.646;8.568;2023-04-16T16:08:16;14.75;;;7.85;;
11827;SDS011;5971;49.646;8.568;2023-04-16T16:11:18;17.45;;;8.48;;
11827;SDS011;5971;49.646;8.568;2023-04-16T16:14:20;13.80;;;7.60;;
11827;SDS011;5971;49.646;8.568;2023-04-16T16:17:22;17.77;;;8.30;;
11827;SDS011;5971;49.646;8.568;2023-04-16T16:20:23;16.25;;;9.20;;
11827;SDS011;5971;49.646;8.568;2023-04-16T16:23:25;19.45;;;9.82;;
11827;SDS011;5971;49.646;8.568;2023-04-16T16:26:27;16.38;;;8.93;;
11827;SDS011;5971;49.646;8.568;2023-04-16T16:29:29;17.55;;;10.10;;
11827;SDS011;5971;49.646;8.568;2023-04-16T16:32:30;17.10;;;9.90;;
11827;SDS011;5971;49.646;8.568;2023-04-16T16:35:32;20.52;;;11.43;;
11827;SDS011;5971;49.646;8.568;2023-04-16T16:38:33;20.35;;;11.07;;
11827;SDS011;5971;49.646;8.568;2023-04-16T16:41:34;19.08;;;11.75;;
11827;SDS011;5971;49.646;8.568;2023-04-16T16:44:41;18.52;;;9.30;;
11827;SDS011;5971;49.646;8.568;2023-04-16T16:47:43;18.58;;;9.60;;
11827;SDS011;5971;49.646;8.568;2023-04-16T16:50:44;18.90;;;9.13;;
11827;SDS011;5971;49.646;8.568;2023-04-16T16:53:45;18.02;;;9.82;;
11827;SDS011;5971;49.646;8.568;2023-04-16T16:56:47;19.40;;;10.77;;
11827;SDS011;5971;49.646;8.568;2023-04-16T16:59:48;18.38;;;9.95;;
11827;SDS011;5971;49.646;8.568;2023-04-16T17:02:51;19.02;;;9.75;;
11827;SDS011;5971;49.646;8.568;2023-04-16T17:05:52;17.65;;;8.98;;
11827;SDS011;5971;49.646;8.568;2023-04-16T17:08:54;17.63;;;10.02;;
11827;SDS011;5971;49.646;8.568;2023-04-16T17:11:55;19.08;;;9.32;;
11827;SDS011;5971;49.646;8.568;2023-04-16T17:14:57;19.70;;;9.77;;
11827;SDS011;5971;49.646;8.568;2023-04-16T17:17:58;17.27;;;8.93;;
11827;SDS011;5971;49.646;8.568;2023-04-16T17:21:00;18.52;;;8.98;;
11827;SDS011;5971;49.646;8.568;2023-04-16T17:24:01;15.30;;;8.27;;
11827;SDS011;5971;49.646;8.568;2023-04-16T17:27:03;17.60;;;8.35;;
11827;SDS011;5971;49.646;8.568;2023-04-16T17:30:04;14.25;;;8.27;;
11827;SDS011;5971;49.646;8.568;2023-04-16T17:33:06;16.92;;;7.57;;
11827;SDS011;5971;49.646;8.568;2023-04-16T17:36:08;17.52;;;9.60;;
11827;SDS011;5971;49.646;8.568;2023-04-16T17:39:09;15.35;;;8.15;;
11827;SDS011;5971;49.646;8.568;2023-04-16T17:42:10;18.10;;;9.57;;
11827;SDS011;5971;49.646;8.568;2023-04-16T17:45:12;16.30;;;9.98;;
11827;SDS011;5971;49.646;8.568;2023-04-16T17:48:13;15.35;;;9.35;;
11827;SDS011;5971;49.646;8.568;2023-04-16T17:51:14;16.98;;;8.70;;
11827;SDS011;5971;49.646;8.568;2023-04-16T17:54:16;17.40;;;8.93;;
11827;SDS011;5971;49.646;8.568;2023-04-16T17:57:17;18.95;;;8.30;;
11827;SDS011;5971;49.646;8.568;2023-04-16T18:00:19;15.00;;;8.05;;
11827;SDS011;5971;49.646;8.568;2023-04-16T18:03:20;15.73;;;7.80;;
11827;SDS011;5971;49.646;8.568;2023-04-16T18:06:22;14.27;;;8.43;;
11827;SDS011;5971;49.646;8.568;2023-04-16T18:09:23;13.82;;;7.70;;
11827;SDS011;5971;49.646;8.568;2023-04-16T18:12:25;14.85;;;7.65;;
11827;SDS011;5971;49.646;8.568;2023-04-16T18:15:27;14.15;;;7.50;;
11827;SDS011;5971;49.646;8.568;2023-04-16T18:18:28;15.75;;;7.88;;
11827;SDS011;5971;49.646;8.568;2023-04-16T18:21:29;14.32;;;7.57;;
11827;SDS011;5971;49.646;8.568;2023-04-16T18:24:31;13.85;;;7.15;;
11827;SDS011;5971;49.646;8.568;2023-04-16T18:27:35;14.00;;;7.35;;
11827;SDS011;5971;49.646;8.568;2023-04-16T18:30:36;12.82;;;6.97;;
11827;SDS011;5971;49.646;8.568;2023-04-16T18:33:40;13.48;;;7.60;;
11827;SDS011;5971;49.646;8.568;2023-04-16T18:36:57;17.23;;;8.05;;
11827;SDS011;5971;49.646;8.568;2023-04-16T18:39:59;14.50;;;7.13;;
11827;SDS011;5971;49.646;8.568;2023-04-16T18:43:00;12.30;;;6.57;;